»·PEaware :: AAL255 KJFK-KLAX

AAL255 :: KJFK-KLAX

FLIGHT INFORMATION

Flight Status: Arrived
Operator:
American Airlines
More flights by this operator :: More flights under this callsign
Pilot: Christopher C. (25813)
Aircraft: AIRBUS A320
(A320)
More flights by this aircraft type
Origin: KJFK Kennedy Intl
United States
Destination: KLAX Los Angeles Intl
United States
More flights between these airports :: More routes between these airports
Route: RBV J230 AIR J80 MCI J24 SLN J102 RYLIE/N0450F360 J102 ALS J44 RSK J64 TBC JASSE Q90 DNERO ANJLL4
File this flight plan on PilotEdge
Remarks: RMK / SIMBRIEF / Picking up IFR when entering Denver Center airspace
Altitude:
(Current/Filed)
36,000ft
Speed:
(Current/Filed)
459kts
Departed: 06-Sep-19 02:51 PM
Arrived: 06-Sep-19 05:07 PM
Distance/Time
Traveled:
2144nm/2:16
Distance/Time
To Go:
Arrived

Flight Plot

Page will automatically refresh every two minutes.

Flight plan parsing failed; only flown route is shown


Map Options




Map Legend


Flown Route
Filed Route
Departure Airport
Arrival Airport
Navaid (VOR, NDB)
Fix

Horizontal Profiles

Position Reports

Time Latitude Longitude Heading Altitude Ground
Speed
06-Sep-19 14:49 38.491378 -100.829051 260 36200ft 438kts
06-Sep-19 14:50 38.468266 -100.982663 260 36196ft 437kts
06-Sep-19 14:51 38.444975 -101.136076 260 36194ft 437kts
06-Sep-19 14:52 38.421519 -101.289134 260 36189ft 436kts
06-Sep-19 14:53 38.397857 -101.442134 260 36189ft 436kts
06-Sep-19 14:54 38.374002 -101.594986 260 36190ft 436kts
06-Sep-19 14:55 38.349900 -101.748054 259 36194ft 436kts
06-Sep-19 14:56 38.325629 -101.900753 259 36200ft 437kts
06-Sep-19 14:57 38.301151 -102.053303 259 36205ft 437kts
06-Sep-19 14:58 38.276407 -102.206173 259 36202ft 437kts
06-Sep-19 14:59 38.251593 -102.358168 259 36190ft 437kts
06-Sep-19 15:00 38.226480 -102.510674 259 36182ft 436kts
06-Sep-19 15:01 38.201291 -102.662270 258 36180ft 435kts
06-Sep-19 15:02 38.165523 -102.811072 252 36186ft 435kts
06-Sep-19 15:03 38.127853 -102.957732 252 36182ft 434kts
06-Sep-19 15:04 38.090008 -103.104211 252 36193ft 433kts
06-Sep-19 15:05 38.052001 -103.250460 252 36213ft 432kts
06-Sep-19 15:06 38.013969 -103.395960 252 36209ft 432kts
06-Sep-19 15:07 37.975767 -103.541281 252 36206ft 432kts
06-Sep-19 15:08 37.937146 -103.687346 252 36212ft 432kts
06-Sep-19 15:09 37.898411 -103.833015 252 36198ft 432kts
06-Sep-19 15:10 37.859712 -103.977722 252 36215ft 432kts
06-Sep-19 15:11 37.820896 -104.122056 252 36246ft 431kts
06-Sep-19 15:12 37.781973 -104.265984 252 36268ft 431kts
06-Sep-19 15:13 37.742911 -104.409633 252 36278ft 431kts
06-Sep-19 15:14 37.703616 -104.553345 252 36274ft 432kts
06-Sep-19 15:15 37.664095 -104.697088 251 36288ft 433kts
06-Sep-19 15:16 37.624312 -104.840991 251 36293ft 433kts
06-Sep-19 15:17 37.584437 -104.984442 251 36390ft 432kts
06-Sep-19 15:19 37.544278 -105.128144 251 36532ft 433kts
06-Sep-19 15:20 37.504061 -105.271269 251 36522ft 432kts
06-Sep-19 15:21 37.463693 -105.414169 251 36519ft 431kts
06-Sep-19 15:22 37.423353 -105.556211 251 36513ft 431kts
06-Sep-19 15:23 37.382740 -105.698466 251 36511ft 431kts
06-Sep-19 15:24 37.342773 -105.840835 253 36518ft 431kts
06-Sep-19 15:25 37.306465 -105.984732 253 36581ft 431kts
06-Sep-19 15:26 37.270030 -106.128206 253 36637ft 430kts
06-Sep-19 15:27 37.233534 -106.271119 253 36611ft 428kts
06-Sep-19 15:28 37.196893 -106.413782 253 36592ft 428kts
06-Sep-19 15:29 37.160103 -106.556242 253 36588ft 428kts
06-Sep-19 15:30 37.123219 -106.698256 252 36589ft 428kts
06-Sep-19 15:31 37.086087 -106.840432 252 36559ft 429kts
06-Sep-19 15:32 37.048755 -106.982585 252 36381ft 428kts
06-Sep-19 15:33 37.011458 -107.123816 252 36297ft 427kts
06-Sep-19 15:34 36.973943 -107.265113 252 36294ft 427kts
06-Sep-19 15:35 36.936278 -107.406199 252 36300ft 426kts
06-Sep-19 15:36 36.898468 -107.547067 252 36296ft 425kts
06-Sep-19 15:37 36.860627 -107.687296 252 36300ft 425kts
06-Sep-19 15:37 36.828952 -107.804105 252 36303ft 425kts
06-Sep-19 15:38 36.790657 -107.944639 252 36301ft 425kts
06-Sep-19 15:40 36.746897 -108.108495 256 36267ft 424kts
06-Sep-19 15:41 36.720371 -108.251483 257 36203ft 423kts
06-Sep-19 15:42 36.693887 -108.394541 257 36198ft 422kts
06-Sep-19 15:43 36.667340 -108.536959 257 36204ft 421kts
06-Sep-19 15:43 36.645337 -108.654252 257 36202ft 421kts
06-Sep-19 15:44 36.618429 -108.796774 257 36211ft 421kts
06-Sep-19 15:45 36.591415 -108.938867 256 36229ft 421kts
06-Sep-19 15:46 36.564192 -109.081060 256 36253ft 420kts
06-Sep-19 15:47 36.536885 -109.222727 256 36281ft 420kts
06-Sep-19 15:48 36.509374 -109.364480 256 36288ft 419kts
06-Sep-19 15:49 36.481726 -109.505978 256 36285ft 419kts
06-Sep-19 15:50 36.454023 -109.646805 256 36282ft 418kts
06-Sep-19 15:51 36.426115 -109.787735 256 36290ft 419kts
06-Sep-19 15:52 36.398042 -109.928559 256 36296ft 419kts
06-Sep-19 15:53 36.369695 -110.069812 255 36258ft 419kts
06-Sep-19 15:54 36.341377 -110.210006 255 36224ft 418kts
06-Sep-19 15:55 36.312879 -110.350182 255 36222ft 418kts
06-Sep-19 15:56 36.284256 -110.490012 255 36232ft 417kts
06-Sep-19 15:57 36.255482 -110.629675 255 36235ft 415kts
06-Sep-19 15:58 36.226767 -110.768172 255 36234ft 413kts
06-Sep-19 15:59 36.198032 -110.905908 254 36232ft 411kts
06-Sep-19 16:00 36.169197 -111.043290 254 36237ft 408kts
06-Sep-19 16:01 36.140466 -111.179335 254 36237ft 406kts
06-Sep-19 16:02 36.117059 -111.316699 262 36237ft 405kts
06-Sep-19 16:03 36.104400 -111.455228 262 36234ft 403kts
06-Sep-19 16:04 36.091713 -111.592247 261 36228ft 401kts
06-Sep-19 16:05 36.078835 -111.729634 261 36231ft 401kts
06-Sep-19 16:06 36.054766 -111.863861 247 36248ft 400kts
06-Sep-19 16:07 36.013674 -111.992251 247 36299ft 400kts
06-Sep-19 16:08 35.972296 -112.121206 247 36329ft 400kts
06-Sep-19 16:09 35.931000 -112.249353 247 36363ft 397kts
06-Sep-19 16:10 35.889896 -112.376346 247 36368ft 393kts
06-Sep-19 16:11 35.849228 -112.501483 247 36328ft 390kts
06-Sep-19 16:12 35.808503 -112.626267 247 36315ft 389kts
06-Sep-19 16:13 35.767640 -112.750951 247 36332ft 390kts
06-Sep-19 16:14 35.726564 -112.875757 246 36305ft 391kts
06-Sep-19 16:15 35.685387 -113.000342 246 36214ft 391kts
06-Sep-19 16:16 35.644144 -113.124613 246 36183ft 391kts
06-Sep-19 16:17 35.602730 -113.248888 246 36175ft 390kts
06-Sep-19 16:18 35.561316 -113.372642 246 36175ft 389kts
06-Sep-19 16:19 35.520145 -113.495169 246 36166ft 388kts
06-Sep-19 16:20 35.478764 -113.617824 246 36162ft 388kts
06-Sep-19 16:21 35.437050 -113.740971 246 36157ft 388kts
06-Sep-19 16:22 35.395210 -113.863993 246 36156ft 388kts
06-Sep-19 16:23 35.353254 -113.986858 246 36150ft 388kts
06-Sep-19 16:24 35.311212 -114.109485 246 36043ft 387kts
06-Sep-19 16:25 35.269217 -114.231487 246 35905ft 387kts
06-Sep-19 16:26 35.226889 -114.353979 246 35884ft 387kts
06-Sep-19 16:27 35.184594 -114.475918 246 35900ft 389kts
06-Sep-19 16:28 35.141829 -114.598703 246 35918ft 390kts
06-Sep-19 16:29 35.099119 -114.721559 245 35918ft 391kts
06-Sep-19 16:30 35.056273 -114.844545 245 35926ft 392kts
06-Sep-19 16:31 35.011304 -114.966830 244 35923ft 391kts
06-Sep-19 16:32 34.964482 -115.088045 244 35951ft 391kts
06-Sep-19 16:33 34.917673 -115.208770 244 35979ft 390kts
06-Sep-19 16:34 34.870819 -115.329167 244 35974ft 390kts
06-Sep-19 16:35 34.823770 -115.449619 244 35992ft 390kts
06-Sep-19 16:36 34.776480 -115.570242 244 36006ft 389kts
06-Sep-19 16:37 34.730215 -115.687832 243 36005ft 389kts
06-Sep-19 16:38 34.682850 -115.807792 243 36023ft 390kts
06-Sep-19 16:39 34.635676 -115.926830 243 36016ft 390kts
06-Sep-19 16:40 34.588142 -116.046345 243 35432ft 388kts
06-Sep-19 16:41 34.540513 -116.165780 243 34527ft 389kts
06-Sep-19 16:42 34.493206 -116.283975 243 32240ft 388kts
06-Sep-19 16:43 34.446200 -116.400772 242 30256ft 378kts
06-Sep-19 16:44 34.399828 -116.515689 243 28485ft 375kts
06-Sep-19 16:45 34.353773 -116.629464 243 26684ft 371kts
06-Sep-19 16:46 34.308865 -116.740715 243 24883ft 367kts
06-Sep-19 16:47 34.264327 -116.851346 243 23058ft 361kts
06-Sep-19 16:48 34.220697 -116.959310 243 21217ft 352kts
06-Sep-19 16:49 34.187846 -117.069327 251 19407ft 343kts
06-Sep-19 16:50 34.158502 -117.177276 251 17621ft 334kts
06-Sep-19 16:51 34.129575 -117.282307 251 15879ft 326kts
06-Sep-19 16:52 34.101417 -117.384725 253 14172ft 318kts
06-Sep-19 16:53 34.076320 -117.485679 253 12729ft 307kts
06-Sep-19 16:54 34.044070 -117.579379 247 11274ft 298kts
06-Sep-19 16:55 34.011607 -117.669529 246 10132ft 282kts
06-Sep-19 16:56 33.999657 -117.757254 262 9274ft 261kts
06-Sep-19 16:57 33.991046 -117.845275 263 7858ft 262kts
06-Sep-19 16:58 33.982619 -117.931520 263 6661ft 256kts
06-Sep-19 16:59 33.974446 -118.014147 263 5882ft 235kts
06-Sep-19 17:00 33.966855 -118.090372 263 5171ft 217kts
06-Sep-19 17:01 33.959113 -118.167189 262 3597ft 232kts
06-Sep-19 17:02 33.952275 -118.238875 262 2485ft 213kts
06-Sep-19 17:03 33.945574 -118.302986 263 1465ft 165kts
06-Sep-19 17:04 33.940608 -118.351164 263 665ft 140kts
06-Sep-19 17:05 33.936145 -118.395151 263 114ft 109kts
06-Sep-19 17:06 33.936053 -118.408366 300 114ft 20kts
06-Sep-19 17:07 33.938849 -118.407389 84 114ft 0kts
06-Sep-19 17:08 33.939416 -118.406513 355 114ft 4kts
06-Sep-19 17:09 33.939688 -118.406547 353 114ft 0kts

Navigation Log

Ident Type
Flight plan parsing failed, navigation log unavailable